Time;durP1;ratioP1;P1;durP2;ratioP2;P2;SDS_P1;SDS_P2;PMS_P1;PMS_P2;Temp;Humidity;BMP_temperature;BMP_pressure;BME280_temperature;BME280_humidity;BME280_pressure;Samples;Min_cycle;Max_cycle;Signal;HPM_P1;HPM_P2
2021/08/13 00:00:34;;;;;;;12.83;11.30;;;;;;;;;;5076407;28;20441;-58
2021/08/13 00:03:01;;;;;;;14.30;11.43;;;;;;;;;;5076053;28;20448;-59
2021/08/13 00:05:28;;;;;;;12.40;11.20;;;;;;;;;;5076253;28;20445;-59
2021/08/13 00:07:55;;;;;;;12.07;10.80;;;;;;;;;;5076160;28;20456;-57
2021/08/13 00:10:24;;;;;;;12.23;10.43;;;;;;;;;;5073599;28;20444;-58
2021/08/13 00:12:51;;;;;;;11.73;9.80;;;;;;;;;;5073345;28;20476;-57
2021/08/13 00:15:19;;;;;;;12.20;10.83;;;;;;;;;;5072925;28;20468;-57
2021/08/13 00:17:46;;;;;;;15.73;11.20;;;;;;;;;;5073238;28;20445;-57
2021/08/13 00:20:14;;;;;;;12.80;10.90;;;;;;;;;;5072858;28;20530;-57
2021/08/13 00:22:41;;;;;;;12.20;10.93;;;;;;;;;;5073128;28;20451;-57
2021/08/13 00:25:09;;;;;;;14.57;10.90;;;;;;;;;;5076822;28;21038;-57
2021/08/13 00:27:37;;;;;;;15.77;10.53;;;;;;;;;;5077007;28;20864;-57
2021/08/13 00:30:05;;;;;;;13.13;10.37;;;;;;;;;;5077204;28;20523;-57
2021/08/13 00:32:32;;;;;;;21.57;10.40;;;;;;;;;;5076702;28;20448;-57
2021/08/13 00:34:59;;;;;;;11.80;10.50;;;;;;;;;;5076981;28;20513;-58
2021/08/13 00:37:27;;;;;;;12.40;10.67;;;;;;;;;;5076754;28;20924;-58
2021/08/13 00:39:54;;;;;;;12.53;11.23;;;;;;;;;;5077082;28;20499;-58
2021/08/13 00:42:22;;;;;;;12.83;11.37;;;;;;;;;;5076996;28;20591;-58
2021/08/13 00:44:50;;;;;;;13.37;11.83;;;;;;;;;;5076595;28;20468;-57
2021/08/13 00:47:18;;;;;;;14.73;11.80;;;;;;;;;;5076841;28;20498;-58
2021/08/13 00:49:45;;;;;;;13.80;11.13;;;;;;;;;;5076883;28;20493;-57
2021/08/13 00:52:12;;;;;;;12.20;11.10;;;;;;;;;;5076815;28;20501;-58
2021/08/13 00:54:40;;;;;;;11.90;10.50;;;;;;;;;;5076266;28;20509;-57
2021/08/13 00:57:07;;;;;;;12.73;11.40;;;;;;;;;;5076728;28;20446;-57
2021/08/13 00:59:36;;;;;;;11.33;10.13;;;;;;;;;;5076453;28;20504;-58
2021/08/13 01:02:05;;;;;;;13.80;10.77;;;;;;;;;;5076652;28;20471;-57
2021/08/13 01:04:32;;;;;;;13.80;11.40;;;;;;;;;;5076550;28;20459;-57
2021/08/13 01:06:59;;;;;;;12.57;11.37;;;;;;;;;;5076029;28;20466;-57
2021/08/13 01:09:27;;;;;;;15.73;12.77;;;;;;;;;;5076147;28;20482;-57
2021/08/13 01:11:57;;;;;;;13.13;11.30;;;;;;;;;;5076104;28;20497;-57
2021/08/13 01:14:26;;;;;;;12.53;11.23;;;;;;;;;;5076311;28;20478;-57
2021/08/13 01:16:54;;;;;;;12.03;10.63;;;;;;;;;;5076037;28;20500;-57
2021/08/13 01:19:27;;;;;;;12.63;11.13;;;;;;;;;;5075961;28;20438;-58
2021/08/13 01:21:57;;;;;;;14.53;12.63;;;;;;;;;;5075948;28;20485;-57
2021/08/13 01:24:25;;;;;;;14.27;10.80;;;;;;;;;;5075732;28;20517;-57
2021/08/13 01:26:53;;;;;;;14.13;12.63;;;;;;;;;;5076197;28;20492;-57
2021/08/13 01:29:27;;;;;;;17.80;13.00;;;;;;;;;;5075747;28;20854;-57
2021/08/13 01:32:01;;;;;;;14.83;13.30;;;;;;;;;;5076031;28;20436;-57
2021/08/13 01:34:30;;;;;;;16.43;14.63;;;;;;;;;;5075760;28;20482;-57
2021/08/13 01:36:59;;;;;;;14.90;13.50;;;;;;;;;;5075366;28;20443;-57
2021/08/13 01:39:29;;;;;;;14.17;12.77;;;;;;;;;;5075640;28;20501;-57
2021/08/13 01:41:56;;;;;;;15.97;12.97;;;;;;;;;;5075646;28;20980;-57
2021/08/13 01:44:24;;;;;;;15.00;12.80;;;;;;;;;;5075740;28;20513;-57
2021/08/13 01:46:51;;;;;;;13.10;11.77;;;;;;;;;;5075822;28;20497;-57
2021/08/13 01:49:19;;;;;;;17.53;12.37;;;;;;;;;;5075409;28;20834;-58
2021/08/13 01:51:48;;;;;;;15.23;12.60;;;;;;;;;;5075743;28;20439;-57
2021/08/13 01:54:16;;;;;;;12.53;11.20;;;;;;;;;;5075361;28;20933;-57
2021/08/13 01:56:44;;;;;;;13.53;12.17;;;;;;;;;;5075322;28;20943;-57
2021/08/13 01:59:12;;;;;;;13.07;11.87;;;;;;;;;;5075281;28;20447;-57
2021/08/13 02:01:39;;;;;;;13.80;12.40;;;;;;;;;;5075439;28;20443;-57
2021/08/13 02:04:07;;;;;;;13.30;12.07;;;;;;;;;;5075086;28;20463;-57
2021/08/13 02:06:36;;;;;;;13.77;12.23;;;;;;;;;;5075306;28;20504;-58
2021/08/13 02:09:05;;;;;;;14.23;12.83;;;;;;;;;;5075253;28;20428;-57
2021/08/13 02:11:32;;;;;;;13.60;12.20;;;;;;;;;;5075278;28;20497;-56
2021/08/13 02:14:00;;;;;;;14.33;12.90;;;;;;;;;;5074907;28;21075;-57
2021/08/13 02:16:30;;;;;;;14.03;12.63;;;;;;;;;;5075066;28;20543;-58
2021/08/13 02:19:00;;;;;;;13.63;12.37;;;;;;;;;;5075226;28;20454;-58
2021/08/13 02:21:28;;;;;;;13.73;12.43;;;;;;;;;;5074870;28;20865;-57
2021/08/13 02:23:55;;;;;;;14.20;12.60;;;;;;;;;;5074764;28;20463;-56
2021/08/13 02:26:24;;;;;;;14.10;12.63;;;;;;;;;;5075175;28;20447;-57
2021/08/13 02:28:51;;;;;;;16.53;13.20;;;;;;;;;;5075147;28;20451;-57
2021/08/13 02:31:18;;;;;;;14.07;12.77;;;;;;;;;;5074584;28;20497;-57
2021/08/13 02:33:45;;;;;;;13.20;11.90;;;;;;;;;;5074707;28;20853;-57
2021/08/13 02:36:16;;;;;;;13.53;12.20;;;;;;;;;;5074514;28;20455;-57
2021/08/13 02:38:48;;;;;;;14.23;12.97;;;;;;;;;;5074752;28;20439;-58
2021/08/13 02:41:16;;;;;;;14.37;12.90;;;;;;;;;;5074758;28;20492;-57
2021/08/13 02:43:49;;;;;;;13.50;12.10;;;;;;;;;;5074259;28;20459;-57
2021/08/13 02:46:16;;;;;;;13.30;11.67;;;;;;;;;;5074327;28;20488;-58
2021/08/13 02:48:43;;;;;;;15.90;13.70;;;;;;;;;;5073811;28;20439;-57
2021/08/13 02:51:12;;;;;;;13.10;11.80;;;;;;;;;;5074158;28;21032;-57
2021/08/13 02:53:41;;;;;;;14.13;12.83;;;;;;;;;;5074324;28;20573;-57
2021/08/13 02:56:09;;;;;;;13.20;12.10;;;;;;;;;;5074429;28;20443;-57
2021/08/13 02:58:39;;;;;;;16.23;12.83;;;;;;;;;;5074441;28;20798;-57
2021/08/13 03:01:08;;;;;;;16.37;11.83;;;;;;;;;;5074669;28;20440;-57
2021/08/13 03:03:36;;;;;;;12.80;11.50;;;;;;;;;;5074026;28;20971;-56
2021/08/13 03:06:04;;;;;;;13.80;12.47;;;;;;;;;;5074276;28;20447;-56
2021/08/13 03:08:32;;;;;;;13.70;12.37;;;;;;;;;;5074344;28;20489;-56
2021/08/13 03:10:59;;;;;;;14.50;12.23;;;;;;;;;;5074424;28;20504;-57
2021/08/13 03:13:27;;;;;;;13.40;12.20;;;;;;;;;;5074376;28;20513;-57
2021/08/13 03:15:54;;;;;;;13.43;12.20;;;;;;;;;;5079201;28;20844;-57
2021/08/13 03:18:23;;;;;;;15.20;13.80;;;;;;;;;;5073989;28;20989;-57
2021/08/13 03:20:51;;;;;;;14.47;12.93;;;;;;;;;;5074399;28;20504;-57
2021/08/13 03:23:18;;;;;;;14.80;13.40;;;;;;;;;;5073992;28;20975;-57
2021/08/13 03:25:46;;;;;;;12.80;11.63;;;;;;;;;;5074573;28;20501;-57
2021/08/13 03:28:13;;;;;;;13.27;11.97;;;;;;;;;;5074220;28;20447;-56
2021/08/13 03:30:41;;;;;;;14.10;12.70;;;;;;;;;;5075460;28;20439;-56
2021/08/13 03:33:09;;;;;;;13.97;12.50;;;;;;;;;;5074471;28;20497;-57
2021/08/13 03:35:38;;;;;;;16.10;12.50;;;;;;;;;;5073508;28;20569;-57
2021/08/13 03:38:06;;;;;;;15.60;14.03;;;;;;;;;;5073800;28;20447;-57
2021/08/13 03:40:33;;;;;;;13.67;12.03;;;;;;;;;;5073608;28;20442;-57
2021/08/13 03:43:01;;;;;;;13.77;12.27;;;;;;;;;;5073830;28;20439;-58
2021/08/13 03:45:28;;;;;;;14.77;12.60;;;;;;;;;;5073758;28;20451;-57
2021/08/13 03:47:55;;;;;;;13.70;12.40;;;;;;;;;;5073295;28;20443;-57
2021/08/13 03:50:22;;;;;;;14.50;13.20;;;;;;;;;;5073566;28;20447;-57
2021/08/13 03:52:51;;;;;;;13.30;12.00;;;;;;;;;;5073316;28;20927;-58
2021/08/13 03:55:18;;;;;;;16.43;13.20;;;;;;;;;;5073497;28;20551;-57
2021/08/13 03:57:45;;;;;;;15.83;12.30;;;;;;;;;;5073777;28;20447;-57
2021/08/13 04:00:13;;;;;;;14.70;13.37;;;;;;;;;;5073437;28;20508;-57
2021/08/13 04:02:41;;;;;;;15.77;12.97;;;;;;;;;;5073423;28;20443;-57
2021/08/13 04:08:29;;;;;;;16.27;14.10;;;;;;;;;;5132324;27;20542;-54
2021/08/13 04:10:56;;;;;;;14.60;12.40;;;;;;;;;;5131355;27;20497;-57
2021/08/13 04:13:23;;;;;;;14.87;13.27;;;;;;;;;;5131830;27;20464;-55
2021/08/13 04:15:50;;;;;;;13.47;12.00;;;;;;;;;;5131698;27;20437;-56
2021/08/13 04:18:18;;;;;;;14.10;12.73;;;;;;;;;;5131690;27;20509;-56
2021/08/13 04:20:45;;;;;;;17.00;13.00;;;;;;;;;;5131452;27;20502;-55
2021/08/13 04:23:12;;;;;;;14.00;12.60;;;;;;;;;;5131503;27;20544;-56
2021/08/13 04:25:41;;;;;;;13.90;12.27;;;;;;;;;;5132705;27;20997;-56
2021/08/13 04:28:08;;;;;;;14.30;12.90;;;;;;;;;;5131304;27;20476;-56
2021/08/13 04:30:36;;;;;;;14.13;12.70;;;;;;;;;;5131009;27;20501;-57
2021/08/13 04:33:07;;;;;;;13.87;11.77;;;;;;;;;;5131240;27;20440;-57
2021/08/13 04:35:34;;;;;;;14.83;11.60;;;;;;;;;;5131569;27;20420;-56
2021/08/13 04:38:01;;;;;;;11.77;10.67;;;;;;;;;;5131103;27;20788;-56
2021/08/13 04:40:29;;;;;;;20.80;11.60;;;;;;;;;;5131190;27;20497;-55
2021/08/13 04:42:57;;;;;;;11.90;10.80;;;;;;;;;;5131597;27;20494;-56
2021/08/13 04:45:25;;;;;;;11.83;10.63;;;;;;;;;;5131641;27;20497;-57
2021/08/13 04:47:52;;;;;;;12.10;10.70;;;;;;;;;;5131271;27;20476;-56
2021/08/13 04:50:19;;;;;;;17.30;12.03;;;;;;;;;;5131709;27;20444;-56
2021/08/13 04:52:48;;;;;;;12.50;10.53;;;;;;;;;;5131371;27;20493;-56
2021/08/13 04:55:18;;;;;;;11.67;10.57;;;;;;;;;;5130459;27;21048;-56
2021/08/13 04:57:46;;;;;;;13.63;10.80;;;;;;;;;;5130667;27;20889;-56
2021/08/13 05:00:15;;;;;;;10.40;9.43;;;;;;;;;;5130846;27;20469;-55
2021/08/13 05:02:42;;;;;;;13.17;10.27;;;;;;;;;;5130428;27;20851;-56
2021/08/13 05:05:10;;;;;;;14.73;9.67;;;;;;;;;;5130559;27;20457;-55
2021/08/13 05:07:37;;;;;;;11.57;10.37;;;;;;;;;;5130322;27;20480;-55
2021/08/13 05:10:08;;;;;;;12.40;9.57;;;;;;;;;;5130511;27;20853;-55
2021/08/13 05:12:36;;;;;;;12.63;9.43;;;;;;;;;;5130675;27;20517;-57
2021/08/13 05:15:03;;;;;;;11.43;10.23;;;;;;;;;;5130169;27;20465;-55
2021/08/13 05:17:31;;;;;;;10.73;9.70;;;;;;;;;;5130533;27;20441;-57
2021/08/13 05:19:59;;;;;;;13.53;9.87;;;;;;;;;;5115970;28;20503;-56
2021/08/13 05:22:26;;;;;;;12.27;9.67;;;;;;;;;;5117102;28;20438;-56
2021/08/13 05:24:53;;;;;;;10.97;9.53;;;;;;;;;;5116906;28;20473;-57
2021/08/13 05:27:20;;;;;;;11.63;10.23;;;;;;;;;;5119635;28;20473;-57
2021/08/13 05:29:48;;;;;;;10.67;9.57;;;;;;;;;;5118445;28;20449;-57
2021/08/13 05:32:15;;;;;;;10.80;9.70;;;;;;;;;;5117947;28;20441;-57
2021/08/13 05:34:43;;;;;;;10.77;8.90;;;;;;;;;;5117270;28;20511;-58
2021/08/13 05:37:11;;;;;;;9.93;8.93;;;;;;;;;;5116304;28;20487;-57
2021/08/13 05:39:38;;;;;;;8.93;8.13;;;;;;;;;;5116608;28;20479;-58
2021/08/13 05:42:05;;;;;;;11.83;8.90;;;;;;;;;;5115988;28;20941;-57
2021/08/13 05:44:32;;;;;;;9.90;8.63;;;;;;;;;;5116143;28;20462;-58
2021/08/13 05:47:00;;;;;;;11.17;8.27;;;;;;;;;;5116359;28;20479;-58
2021/08/13 05:49:27;;;;;;;10.03;9.00;;;;;;;;;;5116023;27;20507;-58
2021/08/13 05:51:55;;;;;;;9.57;8.23;;;;;;;;;;5116339;28;20448;-58
2021/08/13 05:54:23;;;;;;;11.53;9.33;;;;;;;;;;5115973;28;20461;-58
2021/08/13 05:56:50;;;;;;;8.70;7.87;;;;;;;;;;5116436;28;20452;-59
2021/08/13 05:59:17;;;;;;;10.23;8.60;;;;;;;;;;5116231;28;20452;-57
2021/08/13 06:01:44;;;;;;;8.70;7.90;;;;;;;;;;5116272;28;20441;-57
2021/08/13 06:04:12;;;;;;;10.00;9.10;;;;;;;;;;5115860;28;20522;-57
2021/08/13 06:06:41;;;;;;;8.40;7.60;;;;;;;;;;5115283;28;20944;-57
2021/08/13 06:09:09;;;;;;;10.97;8.50;;;;;;;;;;5115879;28;20618;-57
2021/08/13 06:11:37;;;;;;;9.53;7.60;;;;;;;;;;5115516;28;20502;-56
2021/08/13 06:14:04;;;;;;;10.10;7.97;;;;;;;;;;5115905;28;20460;-57
2021/08/13 06:16:31;;;;;;;8.87;7.90;;;;;;;;;;5115940;28;20525;-57
2021/08/13 06:18:58;;;;;;;10.53;8.10;;;;;;;;;;5116964;28;21013;-56
2021/08/13 06:21:25;;;;;;;8.30;7.50;;;;;;;;;;5120865;27;20501;-57
2021/08/13 06:23:53;;;;;;;8.17;7.30;;;;;;;;;;5119583;28;20521;-57
2021/08/13 06:26:21;;;;;;;8.20;7.40;;;;;;;;;;5119802;28;20448;-57
2021/08/13 06:28:48;;;;;;;9.30;7.83;;;;;;;;;;5119461;28;21079;-57
2021/08/13 06:31:16;;;;;;;9.40;6.77;;;;;;;;;;5118206;28;20453;-57
2021/08/13 06:33:43;;;;;;;9.23;8.20;;;;;;;;;;5115316;28;20464;-57
2021/08/13 06:36:11;;;;;;;8.53;7.47;;;;;;;;;;5115280;28;20447;-57
2021/08/13 06:38:38;;;;;;;8.63;7.83;;;;;;;;;;5114909;28;20536;-57
2021/08/13 06:41:06;;;;;;;10.93;7.80;;;;;;;;;;5116008;28;21000;-57
2021/08/13 06:43:34;;;;;;;12.63;9.67;;;;;;;;;;5115355;28;20517;-57
2021/08/13 06:46:01;;;;;;;10.20;8.60;;;;;;;;;;5114505;28;20506;-56
2021/08/13 06:48:29;;;;;;;11.60;9.10;;;;;;;;;;5114672;28;20479;-57
2021/08/13 06:50:56;;;;;;;11.50;8.30;;;;;;;;;;5114686;28;20440;-57
2021/08/13 06:53:23;;;;;;;9.40;7.57;;;;;;;;;;5114965;28;20493;-56
2021/08/13 06:55:50;;;;;;;9.23;8.30;;;;;;;;;;5115272;28;20448;-55
2021/08/13 06:58:18;;;;;;;8.83;7.93;;;;;;;;;;5115524;28;20853;-57
2021/08/13 07:00:46;;;;;;;8.77;7.00;;;;;;;;;;5114936;28;20494;-57
2021/08/13 07:03:14;;;;;;;7.30;6.60;;;;;;;;;;5115622;28;20482;-57
2021/08/13 07:05:41;;;;;;;9.33;7.63;;;;;;;;;;5115527;28;20446;-57
2021/08/13 07:08:09;;;;;;;8.80;7.90;;;;;;;;;;5114315;28;20926;-58
2021/08/13 07:10:36;;;;;;;7.40;6.77;;;;;;;;;;5114599;28;20522;-57
2021/08/13 07:13:04;;;;;;;7.90;7.13;;;;;;;;;;5114071;28;20930;-57
2021/08/13 07:15:31;;;;;;;8.73;7.10;;;;;;;;;;5114410;28;20443;-57
2021/08/13 07:17:59;;;;;;;8.33;6.80;;;;;;;;;;5114798;28;20443;-57
2021/08/13 07:20:27;;;;;;;9.83;7.40;;;;;;;;;;5114231;28;20441;-57
2021/08/13 07:22:54;;;;;;;8.20;7.50;;;;;;;;;;5114600;28;20449;-57
2021/08/13 07:25:22;;;;;;;12.00;7.33;;;;;;;;;;5113807;28;20465;-57
2021/08/13 07:27:49;;;;;;;9.03;8.13;;;;;;;;;;5114137;28;20552;-57
2021/08/13 07:30:16;;;;;;;9.63;8.83;;;;;;;;;;5114047;28;20442;-57
2021/08/13 07:32:45;;;;;;;11.10;7.80;;;;;;;;;;5114385;28;20447;-57
2021/08/13 07:35:14;;;;;;;13.50;8.80;;;;;;;;;;5114490;28;20476;-57
2021/08/13 07:37:41;;;;;;;9.00;7.67;;;;;;;;;;5113784;28;20442;-57
2021/08/13 07:40:09;;;;;;;9.67;8.57;;;;;;;;;;5115443;28;20455;-56
2021/08/13 07:42:38;;;;;;;12.03;7.93;;;;;;;;;;5113634;28;20491;-57
2021/08/13 07:45:06;;;;;;;10.63;8.63;;;;;;;;;;5113739;28;20562;-57
2021/08/13 07:47:33;;;;;;;8.03;6.73;;;;;;;;;;5113513;28;20520;-58
2021/08/13 07:50:00;;;;;;;10.40;8.07;;;;;;;;;;5113519;28;20559;-56
2021/08/13 07:52:29;;;;;;;14.07;8.20;;;;;;;;;;5113693;28;20493;-57
2021/08/13 07:54:56;;;;;;;11.17;8.20;;;;;;;;;;5113306;28;20988;-58
2021/08/13 07:57:25;;;;;;;8.73;7.83;;;;;;;;;;5113340;28;20448;-57
2021/08/13 07:59:53;;;;;;;13.97;7.77;;;;;;;;;;5113515;28;20454;-57
2021/08/13 08:02:20;;;;;;;9.40;7.67;;;;;;;;;;5113620;28;20558;-57
2021/08/13 08:04:47;;;;;;;11.30;7.33;;;;;;;;;;5113196;28;20961;-57
2021/08/13 08:07:14;;;;;;;11.40;7.93;;;;;;;;;;5113284;28;20514;-58
2021/08/13 08:09:43;;;;;;;8.33;7.53;;;;;;;;;;5113657;28;20445;-58
2021/08/13 08:12:11;;;;;;;9.70;7.93;;;;;;;;;;5113441;28;20484;-58
2021/08/13 08:14:38;;;;;;;9.83;8.30;;;;;;;;;;5113553;28;20458;-57
2021/08/13 08:17:05;;;;;;;12.10;8.23;;;;;;;;;;5113510;28;20463;-57
2021/08/13 08:19:33;;;;;;;9.30;8.03;;;;;;;;;;5113112;28;20441;-57
2021/08/13 08:22:00;;;;;;;7.70;6.87;;;;;;;;;;5113001;28;20447;-57
2021/08/13 08:24:27;;;;;;;9.17;8.13;;;;;;;;;;5112769;28;20465;-57
2021/08/13 08:26:56;;;;;;;7.93;7.10;;;;;;;;;;5113299;28;20507;-57
2021/08/13 08:29:23;;;;;;;8.10;7.33;;;;;;;;;;5113158;28;20476;-57
2021/08/13 08:31:50;;;;;;;8.77;7.73;;;;;;;;;;5113276;28;20532;-57
2021/08/13 08:34:18;;;;;;;9.43;7.03;;;;;;;;;;5112766;28;20534;-57
2021/08/13 08:36:45;;;;;;;8.50;7.70;;;;;;;;;;5113615;28;20443;-57
2021/08/13 08:39:12;;;;;;;9.83;8.83;;;;;;;;;;5113275;28;20522;-57
2021/08/13 08:41:40;;;;;;;9.83;8.43;;;;;;;;;;5113445;28;20622;-57
2021/08/13 08:44:08;;;;;;;8.47;7.77;;;;;;;;;;5113461;28;20469;-57
2021/08/13 08:46:36;;;;;;;8.80;7.90;;;;;;;;;;5113073;28;20933;-57
2021/08/13 08:49:03;;;;;;;7.97;7.20;;;;;;;;;;5113212;28;20473;-58
2021/08/13 08:51:31;;;;;;;8.60;7.80;;;;;;;;;;5113182;28;20866;-57
2021/08/13 08:53:58;;;;;;;9.50;8.60;;;;;;;;;;5115614;28;20469;-59
2021/08/13 08:56:26;;;;;;;9.37;8.40;;;;;;;;;;5117365;28;20446;-57
2021/08/13 08:58:54;;;;;;;8.70;8.00;;;;;;;;;;5117178;28;20440;-58
2021/08/13 09:01:25;;;;;;;8.27;7.20;;;;;;;;;;5117349;28;20447;-58
2021/08/13 09:03:52;;;;;;;8.37;7.57;;;;;;;;;;5116989;28;20485;-57
2021/08/13 09:06:19;;;;;;;7.80;7.07;;;;;;;;;;5116721;28;21350;-57
2021/08/13 09:08:47;;;;;;;9.17;7.27;;;;;;;;;;5116822;28;20466;-57
2021/08/13 09:11:14;;;;;;;8.37;6.70;;;;;;;;;;5116653;28;20449;-57
2021/08/13 09:13:41;;;;;;;10.50;7.97;;;;;;;;;;5116839;28;20459;-56
2021/08/13 09:16:13;;;;;;;9.53;8.70;;;;;;;;;;5116667;28;20560;-57
2021/08/13 09:18:42;;;;;;;9.83;8.20;;;;;;;;;;5116566;28;20861;-58
2021/08/13 09:21:10;;;;;;;7.90;7.20;;;;;;;;;;5116563;28;20449;-58
2021/08/13 09:23:39;;;;;;;8.47;7.67;;;;;;;;;;5116457;28;20474;-59
2021/08/13 09:26:07;;;;;;;13.40;7.57;;;;;;;;;;5116267;28;20995;-58
2021/08/13 09:28:45;;;;;;;7.87;7.07;;;;;;;;;;5116193;28;20519;-57
2021/08/13 09:31:17;;;;;;;8.80;7.30;;;;;;;;;;5116043;28;20450;-57
2021/08/13 09:33:48;;;;;;;8.83;7.93;;;;;;;;;;5115720;27;20517;-56
2021/08/13 09:36:15;;;;;;;8.07;7.27;;;;;;;;;;5116206;28;20519;-57
2021/08/13 09:38:43;;;;;;;9.20;7.10;;;;;;;;;;5116278;28;20434;-58
2021/08/13 09:41:11;;;;;;;9.70;7.63;;;;;;;;;;5116371;28;20500;-57
2021/08/13 09:43:58;;;;;;;7.87;7.17;;;;;;;;;;5115615;28;20845;-57
2021/08/13 09:46:26;;;;;;;8.37;7.50;;;;;;;;;;5116194;27;20438;-56
2021/08/13 09:48:55;;;;;;;8.80;8.00;;;;;;;;;;5115523;28;20488;-59
2021/08/13 09:51:35;;;;;;;8.40;7.60;;;;;;;;;;5115919;28;20787;-58
2021/08/13 09:54:03;;;;;;;8.80;6.90;;;;;;;;;;5116223;28;20494;-58
2021/08/13 09:56:31;;;;;;;8.00;7.13;;;;;;;;;;5116617;28;20956;-57
2021/08/13 09:59:08;;;;;;;8.37;7.20;;;;;;;;;;5116015;28;20445;-58
2021/08/13 10:01:36;;;;;;;10.00;7.30;;;;;;;;;;5115755;28;20448;-58
2021/08/13 10:04:05;;;;;;;7.23;6.60;;;;;;;;;;5115143;28;20982;-58
2021/08/13 10:06:34;;;;;;;10.73;8.13;;;;;;;;;;5115317;28;20471;-56
2021/08/13 10:09:01;;;;;;;6.93;6.23;;;;;;;;;;5115155;27;20487;-55
2021/08/13 10:11:29;;;;;;;7.03;6.37;;;;;;;;;;5115397;27;20448;-56
2021/08/13 10:13:56;;;;;;;7.53;6.83;;;;;;;;;;5115173;28;20460;-57
2021/08/13 10:16:24;;;;;;;7.60;6.70;;;;;;;;;;5115459;28;20443;-58
2021/08/13 10:18:55;;;;;;;6.77;6.13;;;;;;;;;;5116084;28;20450;-55
2021/08/13 10:21:24;;;;;;;7.00;5.70;;;;;;;;;;5115354;28;20434;-56
2021/08/13 10:23:53;;;;;;;7.80;6.50;;;;;;;;;;5114865;28;20465;-58
2021/08/13 10:26:21;;;;;;;9.77;6.47;;;;;;;;;;5116671;28;20872;-58
2021/08/13 10:28:49;;;;;;;6.73;5.97;;;;;;;;;;5114843;28;20484;-57
2021/08/13 10:31:18;;;;;;;6.53;5.93;;;;;;;;;;5114707;28;20448;-57
2021/08/13 10:33:45;;;;;;;8.37;6.57;;;;;;;;;;5115078;28;20473;-57
2021/08/13 10:36:16;;;;;;;8.07;6.50;;;;;;;;;;5114546;28;20443;-57
2021/08/13 10:38:46;;;;;;;7.37;6.67;;;;;;;;;;5114680;27;20654;-57
2021/08/13 10:41:14;;;;;;;7.00;6.10;;;;;;;;;;5114995;28;20451;-57
2021/08/13 10:43:43;;;;;;;5.87;5.30;;;;;;;;;;5114465;27;20521;-58
2021/08/13 10:46:12;;;;;;;6.43;5.83;;;;;;;;;;5114493;28;20983;-58
2021/08/13 10:48:43;;;;;;;7.10;6.00;;;;;;;;;;5114454;28;20893;-58
2021/08/13 10:51:11;;;;;;;6.90;5.80;;;;;;;;;;5114492;28;20535;-58
2021/08/13 10:53:39;;;;;;;6.97;6.37;;;;;;;;;;5114133;28;20998;-58
2021/08/13 10:56:08;;;;;;;6.70;6.07;;;;;;;;;;5114636;28;20479;-57
2021/08/13 10:58:50;;;;;;;8.10;6.53;;;;;;;;;;5114633;28;20541;-59
2021/08/13 11:01:19;;;;;;;7.47;6.87;;;;;;;;;;5114611;28;20475;-58
2021/08/13 11:04:08;;;;;;;6.33;5.70;;;;;;;;;;5114093;28;20976;-57
2021/08/13 11:06:43;;;;;;;6.77;6.07;;;;;;;;;;5114036;28;20492;-57
2021/08/13 11:09:11;;;;;;;6.77;6.17;;;;;;;;;;5114046;28;20469;-57
2021/08/13 11:11:56;;;;;;;7.10;6.37;;;;;;;;;;5114403;28;20449;-57
2021/08/13 11:14:24;;;;;;;5.87;5.37;;;;;;;;;;5113986;28;20461;-57
2021/08/13 11:16:52;;;;;;;6.07;5.40;;;;;;;;;;5113695;27;20449;-56
2021/08/13 11:19:20;;;;;;;9.53;6.10;;;;;;;;;;5113726;28;20940;-57
2021/08/13 11:21:49;;;;;;;6.77;6.07;;;;;;;;;;5114128;28;20476;-57
2021/08/13 11:24:18;;;;;;;6.60;5.70;;;;;;;;;;5113898;27;20476;-57
2021/08/13 11:27:03;;;;;;;6.23;5.70;;;;;;;;;;5113851;28;20499;-58
2021/08/13 11:29:34;;;;;;;6.83;6.23;;;;;;;;;;5113965;28;20476;-56
2021/08/13 11:32:02;;;;;;;7.70;6.60;;;;;;;;;;5113926;28;20900;-57
2021/08/13 11:34:45;;;;;;;6.63;6.03;;;;;;;;;;5113500;28;20977;-57
2021/08/13 11:37:33;;;;;;;7.40;6.17;;;;;;;;;;5114062;28;20452;-57
2021/08/13 11:40:02;;;;;;;7.10;6.37;;;;;;;;;;5113241;28;20789;-57
2021/08/13 11:42:31;;;;;;;7.40;6.70;;;;;;;;;;5113745;28;20948;-57
2021/08/13 11:44:59;;;;;;;7.03;6.37;;;;;;;;;;5113577;28;20476;-54
2021/08/13 11:47:26;;;;;;;9.70;6.40;;;;;;;;;;5113958;28;20494;-56
2021/08/13 11:49:54;;;;;;;8.10;7.40;;;;;;;;;;5113392;28;20481;-58
2021/08/13 11:52:23;;;;;;;6.70;6.00;;;;;;;;;;5113331;28;20495;-57
2021/08/13 11:54:51;;;;;;;6.50;5.87;;;;;;;;;;5113411;28;20475;-57
2021/08/13 11:57:19;;;;;;;7.93;6.80;;;;;;;;;;5113072;28;20845;-57
2021/08/13 11:59:47;;;;;;;6.43;5.57;;;;;;;;;;5113597;28;20534;-56
2021/08/13 12:02:14;;;;;;;13.03;7.40;;;;;;;;;;5113175;28;20449;-57
2021/08/13 12:04:42;;;;;;;7.80;7.10;;;;;;;;;;5113488;28;20465;-57
2021/08/13 12:07:10;;;;;;;8.60;7.73;;;;;;;;;;5113123;28;20506;-57
2021/08/13 12:09:39;;;;;;;7.30;6.70;;;;;;;;;;5113563;28;20487;-57
2021/08/13 12:12:07;;;;;;;7.27;6.43;;;;;;;;;;5113696;28;20440;-56
2021/08/13 12:14:35;;;;;;;7.33;6.63;;;;;;;;;;5113685;28;20465;-57
2021/08/13 12:17:03;;;;;;;6.93;6.30;;;;;;;;;;5113262;28;20495;-57
2021/08/13 12:19:30;;;;;;;8.17;7.20;;;;;;;;;;5113726;28;20437;-57
2021/08/13 12:21:58;;;;;;;7.30;6.70;;;;;;;;;;5113414;28;20490;-57
2021/08/13 12:24:29;;;;;;;8.57;7.77;;;;;;;;;;5113118;28;20457;-57
2021/08/13 12:26:58;;;;;;;10.77;7.90;;;;;;;;;;5113076;28;20490;-56
2021/08/13 12:29:26;;;;;;;8.10;7.30;;;;;;;;;;5115434;28;20504;-57
2021/08/13 12:31:55;;;;;;;7.57;6.70;;;;;;;;;;5117116;28;20933;-58
2021/08/13 12:34:22;;;;;;;8.07;7.27;;;;;;;;;;5116772;28;20472;-57
2021/08/13 12:37:01;;;;;;;8.00;7.20;;;;;;;;;;5117347;28;20448;-58
2021/08/13 12:39:28;;;;;;;10.00;6.63;;;;;;;;;;5116848;28;20494;-57
2021/08/13 12:41:55;;;;;;;10.10;6.97;;;;;;;;;;5116797;28;20498;-57
2021/08/13 12:44:24;;;;;;;8.90;7.20;;;;;;;;;;5117168;27;20886;-57
2021/08/13 12:46:52;;;;;;;7.50;6.80;;;;;;;;;;5117085;28;20464;-57
2021/08/13 12:49:19;;;;;;;8.90;7.43;;;;;;;;;;5116983;28;20872;-57
2021/08/13 12:51:47;;;;;;;7.93;7.20;;;;;;;;;;5116955;28;20523;-57
2021/08/13 12:54:33;;;;;;;10.73;7.80;;;;;;;;;;5116708;28;20876;-57
2021/08/13 12:57:00;;;;;;;8.20;7.40;;;;;;;;;;5117055;28;20507;-57
2021/08/13 12:59:33;;;;;;;8.27;7.47;;;;;;;;;;5117059;28;20451;-57
2021/08/13 13:02:01;;;;;;;8.17;7.20;;;;;;;;;;5116756;28;20454;-57
2021/08/13 13:04:41;;;;;;;8.83;6.97;;;;;;;;;;5116505;28;20972;-57
2021/08/13 13:07:10;;;;;;;9.10;7.77;;;;;;;;;;5117038;28;20463;-57
2021/08/13 13:09:39;;;;;;;9.23;7.57;;;;;;;;;;5117592;28;20483;-57
2021/08/13 13:12:16;;;;;;;8.20;7.43;;;;;;;;;;5116554;28;20535;-57
2021/08/13 13:14:45;;;;;;;9.07;6.60;;;;;;;;;;5116666;28;20520;-58
2021/08/13 13:17:13;;;;;;;7.63;6.93;;;;;;;;;;5116630;28;20440;-57
2021/08/13 13:19:40;;;;;;;8.70;7.50;;;;;;;;;;5116065;28;20443;-58
2021/08/13 13:22:19;;;;;;;9.10;8.10;;;;;;;;;;5115833;27;20955;-57
2021/08/13 13:24:46;;;;;;;8.03;7.20;;;;;;;;;;5116633;28;20823;-57
2021/08/13 13:27:14;;;;;;;12.53;8.57;;;;;;;;;;5116114;28;20500;-57
2021/08/13 13:29:44;;;;;;;8.10;7.40;;;;;;;;;;5115939;28;20476;-58
2021/08/13 13:32:14;;;;;;;8.13;7.30;;;;;;;;;;5116300;28;20432;-57
2021/08/13 13:34:41;;;;;;;12.63;8.20;;;;;;;;;;5115762;28;20878;-58
2021/08/13 13:37:13;;;;;;;8.67;7.77;;;;;;;;;;5115863;28;20940;-57
2021/08/13 13:39:41;;;;;;;8.47;7.73;;;;;;;;;;5115353;28;20447;-57
2021/08/13 13:42:08;;;;;;;9.40;8.57;;;;;;;;;;5116164;28;20447;-57
2021/08/13 13:44:36;;;;;;;9.30;7.53;;;;;;;;;;5115607;28;20467;-57
2021/08/13 13:47:03;;;;;;;8.47;7.67;;;;;;;;;;5115866;28;20862;-57
2021/08/13 13:49:32;;;;;;;9.47;8.53;;;;;;;;;;5115487;28;21001;-57
2021/08/13 13:52:00;;;;;;;10.30;8.17;;;;;;;;;;5116327;28;20444;-57
2021/08/13 13:54:27;;;;;;;9.03;7.97;;;;;;;;;;5115269;28;20467;-56
2021/08/13 13:56:55;;;;;;;9.90;8.77;;;;;;;;;;5115603;28;20829;-57
2021/08/13 13:59:22;;;;;;;9.20;7.20;;;;;;;;;;5115478;28;20440;-57
2021/08/13 14:01:49;;;;;;;9.67;8.53;;;;;;;;;;5115489;27;20446;-57
2021/08/13 14:04:16;;;;;;;9.10;8.20;;;;;;;;;;5115678;28;20459;-57
2021/08/13 14:06:45;;;;;;;9.00;8.10;;;;;;;;;;5115169;28;20592;-56
2021/08/13 14:09:12;;;;;;;10.20;9.10;;;;;;;;;;5114989;28;20996;-58
2021/08/13 14:11:39;;;;;;;10.23;9.20;;;;;;;;;;5115207;28;20503;-57
2021/08/13 14:14:07;;;;;;;9.43;8.40;;;;;;;;;;5115305;28;20493;-55
2021/08/13 14:16:34;;;;;;;10.43;9.43;;;;;;;;;;5115343;28;20440;-56
2021/08/13 14:19:02;;;;;;;9.63;8.20;;;;;;;;;;5115945;28;20829;-58
2021/08/13 14:21:29;;;;;;;9.23;8.20;;;;;;;;;;5115021;28;20982;-57
2021/08/13 14:23:58;;;;;;;13.00;7.97;;;;;;;;;;5114914;28;20479;-57
2021/08/13 14:26:25;;;;;;;10.47;9.33;;;;;;;;;;5115286;28;20442;-57
2021/08/13 14:28:52;;;;;;;10.30;8.53;;;;;;;;;;5115266;28;20444;-58
2021/08/13 14:31:20;;;;;;;10.13;8.80;;;;;;;;;;5114759;28;21062;-58
2021/08/13 14:33:47;;;;;;;10.63;9.53;;;;;;;;;;5115157;28;20464;-58
2021/08/13 14:36:14;;;;;;;9.77;8.77;;;;;;;;;;5114868;28;20533;-57
2021/08/13 14:38:42;;;;;;;12.87;8.37;;;;;;;;;;5114420;28;20470;-57
2021/08/13 14:41:10;;;;;;;9.30;8.50;;;;;;;;;;5114832;28;20511;-56